Egegik Airport Egegik US
ICAO: PAII
IATA:
Category: Medium
Scheduled Services:

Elevation: 92 ft
TransAlt. 18000 ft.

Airport Communications:
ANCHORAGE CNTR:124.8
AWOS 3:135.65
CTAF:122.8

PAII Zoom In..

Runways:

(A) RW 03 length 1500 ft width 75 ft
---- / hdg 32

(B) RW 12 length 5600 ft width 100 ft
---- / hdg 122

(C) RW 21 length 1500 ft width 75 ft
---- / hdg 212

(D) RW 30 length 5600 ft width 100 ft
---- / hdg 302

Location; PAII
Day. 22 / Time. 23.56 Zulu
* Altimeter: 29.99
* Temperature: -16° c. -3.2°f.
* Wind from: 360° Speed 17 kn with Gusts up to 23 kn.
Dewpoint: -22° c.
Visibility: 10 Statute Miles.
Clouds: Clear (automated report).

PAII 222356Z AUTO 36017G23KT 10SM CLR M16/M22 A2999 RMK AO2 SLP158 T11611217 11161 21189 53007 FZRANO


Wind From 360°
Speed 17 kn.

YouTube Music Video
 
jpsmedia.com for Web Design  worldairports.se 2018   terms of use